sensor_id;sensor_type;location;lat;lon;timestamp;P1;durP1;ratioP1;P2;durP2;ratioP2
21120;SDS011;12519;43.318;21.898;2024-03-23T00:54:43;30.0;;;25.0;;
21120;SDS011;12519;43.318;21.898;2024-03-23T00:59:20;28.0;;;23.0;;
21120;SDS011;12519;43.318;21.898;2024-03-23T01:03:57;28.0;;;23.0;;
21120;SDS011;12519;43.318;21.898;2024-03-23T01:08:34;26.0;;;24.0;;
21120;SDS011;12519;43.318;21.898;2024-03-23T01:13:11;26.0;;;24.0;;
21120;SDS011;12519;43.318;21.898;2024-03-23T01:17:48;25.0;;;24.0;;
21120;SDS011;12519;43.318;21.898;2024-03-23T01:22:25;25.0;;;24.0;;
21120;SDS011;12519;43.318;21.898;2024-03-23T01:27:01;25.0;;;24.0;;
21120;SDS011;12519;43.318;21.898;2024-03-23T01:31:40;24.0;;;22.0;;
21120;SDS011;12519;43.318;21.898;2024-03-23T01:36:17;24.0;;;22.0;;
21120;SDS011;12519;43.318;21.898;2024-03-23T01:40:56;23.0;;;21.0;;
21120;SDS011;12519;43.318;21.898;2024-03-23T01:45:34;23.0;;;21.0;;
21120;SDS011;12519;43.318;21.898;2024-03-23T01:50:13;26.0;;;23.0;;
21120;SDS011;12519;43.318;21.898;2024-03-23T01:54:51;26.0;;;23.0;;
21120;SDS011;12519;43.318;21.898;2024-03-23T01:59:29;30.0;;;25.0;;
21120;SDS011;12519;43.318;21.898;2024-03-23T02:04:07;30.0;;;25.0;;
21120;SDS011;12519;43.318;21.898;2024-03-23T02:08:44;30.0;;;26.0;;
21120;SDS011;12519;43.318;21.898;2024-03-23T02:13:20;30.0;;;26.0;;
21120;SDS011;12519;43.318;21.898;2024-03-23T02:17:57;29.0;;;26.0;;
21120;SDS011;12519;43.318;21.898;2024-03-23T02:22:35;29.0;;;26.0;;
21120;SDS011;12519;43.318;21.898;2024-03-23T02:27:15;25.0;;;22.0;;
21120;SDS011;12519;43.318;21.898;2024-03-23T02:31:51;25.0;;;22.0;;
21120;SDS011;12519;43.318;21.898;2024-03-23T02:36:27;25.0;;;22.0;;
21120;SDS011;12519;43.318;21.898;2024-03-23T02:41:04;21.0;;;18.0;;
21120;SDS011;12519;43.318;21.898;2024-03-23T02:45:41;21.0;;;18.0;;
21120;SDS011;12519;43.318;21.898;2024-03-23T02:50:17;20.0;;;17.0;;
21120;SDS011;12519;43.318;21.898;2024-03-23T02:54:54;20.0;;;17.0;;
21120;SDS011;12519;43.318;21.898;2024-03-23T02:59:30;18.0;;;16.0;;
21120;SDS011;12519;43.318;21.898;2024-03-23T03:04:07;18.0;;;16.0;;
21120;SDS011;12519;43.318;21.898;2024-03-23T03:08:43;18.0;;;16.0;;
21120;SDS011;12519;43.318;21.898;2024-03-23T03:13:20;18.0;;;16.0;;
21120;SDS011;12519;43.318;21.898;2024-03-23T03:17:57;18.0;;;15.0;;
21120;SDS011;12519;43.318;21.898;2024-03-23T03:22:34;18.0;;;15.0;;
21120;SDS011;12519;43.318;21.898;2024-03-23T03:27:11;18.0;;;15.0;;
21120;SDS011;12519;43.318;21.898;2024-03-23T03:31:48;16.0;;;14.0;;
21120;SDS011;12519;43.318;21.898;2024-03-23T03:36:25;16.0;;;14.0;;
21120;SDS011;12519;43.318;21.898;2024-03-23T03:41:03;14.0;;;13.0;;
21120;SDS011;12519;43.318;21.898;2024-03-23T03:45:40;14.0;;;13.0;;
21120;SDS011;12519;43.318;21.898;2024-03-23T03:50:17;14.0;;;14.0;;
21120;SDS011;12519;43.318;21.898;2024-03-23T03:54:55;14.0;;;14.0;;
21120;SDS011;12519;43.318;21.898;2024-03-23T03:59:49;15.0;;;14.0;;
21120;SDS011;12519;43.318;21.898;2024-03-23T04:04:25;15.0;;;14.0;;
21120;SDS011;12519;43.318;21.898;2024-03-23T04:09:02;15.0;;;13.0;;
21120;SDS011;12519;43.318;21.898;2024-03-23T04:13:38;15.0;;;13.0;;
21120;SDS011;12519;43.318;21.898;2024-03-23T04:18:15;15.0;;;12.0;;
21120;SDS011;12519;43.318;21.898;2024-03-23T04:22:52;15.0;;;12.0;;
21120;SDS011;12519;43.318;21.898;2024-03-23T04:27:28;14.0;;;12.0;;
21120;SDS011;12519;43.318;21.898;2024-03-23T04:32:05;14.0;;;12.0;;
21120;SDS011;12519;43.318;21.898;2024-03-23T04:36:42;14.0;;;12.0;;
21120;SDS011;12519;43.318;21.898;2024-03-23T04:41:19;12.0;;;12.0;;
21120;SDS011;12519;43.318;21.898;2024-03-23T04:45:56;12.0;;;12.0;;
21120;SDS011;12519;43.318;21.898;2024-03-23T04:50:33;13.0;;;12.0;;
21120;SDS011;12519;43.318;21.898;2024-03-23T04:55:10;13.0;;;12.0;;
21120;SDS011;12519;43.318;21.898;2024-03-23T04:59:47;14.0;;;13.0;;
21120;SDS011;12519;43.318;21.898;2024-03-23T05:04:24;14.0;;;13.0;;
21120;SDS011;12519;43.318;21.898;2024-03-23T05:09:01;24.0;;;21.0;;
21120;SDS011;12519;43.318;21.898;2024-03-23T05:13:37;24.0;;;21.0;;
21120;SDS011;12519;43.318;21.898;2024-03-23T05:18:13;35.0;;;29.0;;
21120;SDS011;12519;43.318;21.898;2024-03-23T05:22:50;35.0;;;29.0;;
21120;SDS011;12519;43.318;21.898;2024-03-23T05:27:26;35.0;;;29.0;;
21120;SDS011;12519;43.318;21.898;2024-03-23T05:32:02;27.0;;;24.0;;
21120;SDS011;12519;43.318;21.898;2024-03-23T05:36:40;27.0;;;24.0;;
21120;SDS011;12519;43.318;21.898;2024-03-23T05:41:17;19.0;;;18.0;;
21120;SDS011;12519;43.318;21.898;2024-03-23T05:45:54;19.0;;;18.0;;
21120;SDS011;12519;43.318;21.898;2024-03-23T05:50:33;18.0;;;17.0;;
21120;SDS011;12519;43.318;21.898;2024-03-23T05:55:10;18.0;;;17.0;;
21120;SDS011;12519;43.318;21.898;2024-03-23T05:59:46;17.0;;;16.0;;
21120;SDS011;12519;43.318;21.898;2024-03-23T06:04:23;17.0;;;16.0;;
21120;SDS011;12519;43.318;21.898;2024-03-23T06:09:00;16.0;;;14.0;;
21120;SDS011;12519;43.318;21.898;2024-03-23T06:13:37;16.0;;;14.0;;
21120;SDS011;12519;43.318;21.898;2024-03-23T06:18:14;14.0;;;13.0;;
21120;SDS011;12519;43.318;21.898;2024-03-23T06:22:51;14.0;;;13.0;;
21120;SDS011;12519;43.318;21.898;2024-03-23T06:27:27;14.0;;;13.0;;
21120;SDS011;12519;43.318;21.898;2024-03-23T06:32:04;14.0;;;12.0;;
21120;SDS011;12519;43.318;21.898;2024-03-23T06:36:42;14.0;;;12.0;;
21120;SDS011;12519;43.318;21.898;2024-03-23T06:41:19;14.0;;;12.0;;
21120;SDS011;12519;43.318;21.898;2024-03-23T06:45:56;14.0;;;12.0;;
21120;SDS011;12519;43.318;21.898;2024-03-23T06:50:33;14.0;;;12.0;;
21120;SDS011;12519;43.318;21.898;2024-03-23T06:55:11;14.0;;;12.0;;
21120;SDS011;12519;43.318;21.898;2024-03-23T06:59:48;15.0;;;12.0;;
21120;SDS011;12519;43.318;21.898;2024-03-23T07:04:25;15.0;;;12.0;;
21120;SDS011;12519;43.318;21.898;2024-03-23T07:09:02;22.0;;;20.0;;
21120;SDS011;12519;43.318;21.898;2024-03-23T07:13:39;22.0;;;20.0;;
21120;SDS011;12519;43.318;21.898;2024-03-23T07:18:15;30.0;;;29.0;;
21120;SDS011;12519;43.318;21.898;2024-03-23T07:22:52;30.0;;;29.0;;
21120;SDS011;12519;43.318;21.898;2024-03-23T07:27:29;30.0;;;29.0;;
21120;SDS011;12519;43.318;21.898;2024-03-23T07:32:05;21.0;;;20.0;;
21120;SDS011;12519;43.318;21.898;2024-03-23T07:36:42;21.0;;;20.0;;
21120;SDS011;12519;43.318;21.898;2024-03-23T07:41:19;12.0;;;11.0;;
21120;SDS011;12519;43.318;21.898;2024-03-23T07:45:57;12.0;;;11.0;;
21120;SDS011;12519;43.318;21.898;2024-03-23T07:50:35;12.0;;;12.0;;
21120;SDS011;12519;43.318;21.898;2024-03-23T07:55:11;12.0;;;12.0;;
21120;SDS011;12519;43.318;21.898;2024-03-23T07:59:48;13.0;;;12.0;;
21120;SDS011;12519;43.318;21.898;2024-03-23T08:04:24;13.0;;;12.0;;
21120;SDS011;12519;43.318;21.898;2024-03-23T08:09:03;14.0;;;13.0;;
21120;SDS011;12519;43.318;21.898;2024-03-23T08:13:40;14.0;;;13.0;;
21120;SDS011;12519;43.318;21.898;2024-03-23T08:18:21;15.0;;;14.0;;
21120;SDS011;12519;43.318;21.898;2024-03-23T08:22:58;15.0;;;14.0;;
21120;SDS011;12519;43.318;21.898;2024-03-23T08:27:35;15.0;;;14.0;;
21120;SDS011;12519;43.318;21.898;2024-03-23T08:32:11;12.0;;;11.0;;
21120;SDS011;12519;43.318;21.898;2024-03-23T08:36:48;12.0;;;11.0;;
21120;SDS011;12519;43.318;21.898;2024-03-23T08:41:26;9.0;;;8.0;;
21120;SDS011;12519;43.318;21.898;2024-03-23T08:46:04;9.0;;;8.0;;
21120;SDS011;12519;43.318;21.898;2024-03-23T08:50:45;10.0;;;10.0;;
21120;SDS011;12519;43.318;21.898;2024-03-23T08:55:22;10.0;;;10.0;;
21120;SDS011;12519;43.318;21.898;2024-03-23T08:59:59;12.0;;;11.0;;
21120;SDS011;12519;43.318;21.898;2024-03-23T09:04:36;12.0;;;11.0;;
21120;SDS011;12519;43.318;21.898;2024-03-23T09:09:12;14.0;;;14.0;;
21120;SDS011;12519;43.318;21.898;2024-03-23T09:13:49;14.0;;;14.0;;
21120;SDS011;12519;43.318;21.898;2024-03-23T09:18:25;17.0;;;16.0;;
21120;SDS011;12519;43.318;21.898;2024-03-23T09:23:02;17.0;;;16.0;;
21120;SDS011;12519;43.318;21.898;2024-03-23T09:27:40;17.0;;;16.0;;
21120;SDS011;12519;43.318;21.898;2024-03-23T09:32:17;18.0;;;16.0;;
21120;SDS011;12519;43.318;21.898;2024-03-23T09:36:54;18.0;;;16.0;;
21120;SDS011;12519;43.318;21.898;2024-03-23T09:41:31;18.0;;;17.0;;
21120;SDS011;12519;43.318;21.898;2024-03-23T09:46:08;18.0;;;17.0;;
21120;SDS011;12519;43.318;21.898;2024-03-23T09:50:45;17.0;;;16.0;;
21120;SDS011;12519;43.318;21.898;2024-03-23T09:55:22;17.0;;;16.0;;
21120;SDS011;12519;43.318;21.898;2024-03-23T09:59:59;16.0;;;15.0;;
21120;SDS011;12519;43.318;21.898;2024-03-23T10:04:37;16.0;;;15.0;;
21120;SDS011;12519;43.318;21.898;2024-03-23T10:09:16;16.0;;;14.0;;
21120;SDS011;12519;43.318;21.898;2024-03-23T10:13:53;16.0;;;14.0;;
21120;SDS011;12519;43.318;21.898;2024-03-23T10:18:30;16.0;;;13.0;;
21120;SDS011;12519;43.318;21.898;2024-03-23T10:23:06;16.0;;;13.0;;
21120;SDS011;12519;43.318;21.898;2024-03-23T10:27:57;16.0;;;13.0;;
21120;SDS011;12519;43.318;21.898;2024-03-23T10:32:36;14.0;;;12.0;;
21120;SDS011;12519;43.318;21.898;2024-03-23T10:37:14;14.0;;;12.0;;
21120;SDS011;12519;43.318;21.898;2024-03-23T10:41:51;13.0;;;11.0;;
21120;SDS011;12519;43.318;21.898;2024-03-23T10:46:36;13.0;;;11.0;;
21120;SDS011;12519;43.318;21.898;2024-03-23T10:51:13;11.0;;;10.0;;
21120;SDS011;12519;43.318;21.898;2024-03-23T10:55:51;11.0;;;10.0;;
21120;SDS011;12519;43.318;21.898;2024-03-23T11:00:32;9.0;;;8.0;;
21120;SDS011;12519;43.318;21.898;2024-03-23T11:05:46;9.0;;;8.0;;
21120;SDS011;12519;43.318;21.898;2024-03-23T11:10:24;10.0;;;8.0;;
21120;SDS011;12519;43.318;21.898;2024-03-23T11:15:06;10.0;;;8.0;;
21120;SDS011;12519;43.318;21.898;2024-03-23T11:19:52;10.0;;;8.0;;
21120;SDS011;12519;43.318;21.898;2024-03-23T11:24:34;10.0;;;8.0;;
21120;SDS011;12519;43.318;21.898;2024-03-23T11:29:10;10.0;;;8.0;;
21120;SDS011;12519;43.318;21.898;2024-03-23T11:34:02;10.0;;;8.0;;
21120;SDS011;12519;43.318;21.898;2024-03-23T11:38:42;10.0;;;9.0;;
21120;SDS011;12519;43.318;21.898;2024-03-23T11:43:24;10.0;;;9.0;;
21120;SDS011;12519;43.318;21.898;2024-03-23T11:48:02;10.0;;;9.0;;
21120;SDS011;12519;43.318;21.898;2024-03-23T11:52:45;9.0;;;8.0;;
21120;SDS011;12519;43.318;21.898;2024-03-23T11:57:22;9.0;;;8.0;;
21120;SDS011;12519;43.318;21.898;2024-03-23T12:01:59;8.0;;;8.0;;
21120;SDS011;12519;43.318;21.898;2024-03-23T12:06:43;8.0;;;8.0;;
21120;SDS011;12519;43.318;21.898;2024-03-23T12:11:20;7.0;;;7.0;;
21120;SDS011;12519;43.318;21.898;2024-03-23T12:16:08;7.0;;;7.0;;
21120;SDS011;12519;43.318;21.898;2024-03-23T12:20:53;6.0;;;6.0;;
21120;SDS011;12519;43.318;21.898;2024-03-23T12:25:30;6.0;;;6.0;;
21120;SDS011;12519;43.318;21.898;2024-03-23T12:30:07;8.0;;;8.0;;
21120;SDS011;12519;43.318;21.898;2024-03-23T12:34:48;8.0;;;8.0;;
21120;SDS011;12519;43.318;21.898;2024-03-23T12:39:25;10.0;;;9.0;;
21120;SDS011;12519;43.318;21.898;2024-03-23T12:44:03;10.0;;;9.0;;
21120;SDS011;12519;43.318;21.898;2024-03-23T12:48:40;10.0;;;9.0;;
21120;SDS011;12519;43.318;21.898;2024-03-23T12:53:16;10.0;;;9.0;;
21120;SDS011;12519;43.318;21.898;2024-03-23T12:57:52;10.0;;;9.0;;
21120;SDS011;12519;43.318;21.898;2024-03-23T13:02:29;10.0;;;9.0;;
21120;SDS011;12519;43.318;21.898;2024-03-23T13:07:06;10.0;;;9.0;;
21120;SDS011;12519;43.318;21.898;2024-03-23T13:11:43;10.0;;;9.0;;
21120;SDS011;12519;43.318;21.898;2024-03-23T13:16:19;10.0;;;9.0;;
21120;SDS011;12519;43.318;21.898;2024-03-23T13:20:55;11.0;;;9.0;;
21120;SDS011;12519;43.318;21.898;2024-03-23T13:25:31;11.0;;;9.0;;
21120;SDS011;12519;43.318;21.898;2024-03-23T13:30:08;10.0;;;8.0;;
21120;SDS011;12519;43.318;21.898;2024-03-23T13:34:47;10.0;;;8.0;;
21120;SDS011;12519;43.318;21.898;2024-03-23T13:39:24;8.0;;;7.0;;
21120;SDS011;12519;43.318;21.898;2024-03-23T13:44:01;8.0;;;7.0;;
21120;SDS011;12519;43.318;21.898;2024-03-23T13:48:38;8.0;;;7.0;;
21120;SDS011;12519;43.318;21.898;2024-03-23T13:53:15;9.0;;;8.0;;
21120;SDS011;12519;43.318;21.898;2024-03-23T13:57:52;9.0;;;8.0;;
21120;SDS011;12519;43.318;21.898;2024-03-23T14:02:29;10.0;;;9.0;;
21120;SDS011;12519;43.318;21.898;2024-03-23T14:07:06;10.0;;;9.0;;
21120;SDS011;12519;43.318;21.898;2024-03-23T14:11:43;10.0;;;8.0;;
21120;SDS011;12519;43.318;21.898;2024-03-23T14:16:20;10.0;;;8.0;;
21120;SDS011;12519;43.318;21.898;2024-03-23T14:20:58;9.0;;;7.0;;
21120;SDS011;12519;43.318;21.898;2024-03-23T14:25:38;9.0;;;7.0;;
21120;SDS011;12519;43.318;21.898;2024-03-23T14:30:14;10.0;;;6.0;;
21120;SDS011;12519;43.318;21.898;2024-03-23T14:34:51;10.0;;;6.0;;
21120;SDS011;12519;43.318;21.898;2024-03-23T14:39:27;12.0;;;6.0;;
21120;SDS011;12519;43.318;21.898;2024-03-23T14:44:03;12.0;;;6.0;;
21120;SDS011;12519;43.318;21.898;2024-03-23T14:48:40;12.0;;;6.0;;
21120;SDS011;12519;43.318;21.898;2024-03-23T14:53:19;10.0;;;6.0;;
21120;SDS011;12519;43.318;21.898;2024-03-23T14:57:55;10.0;;;6.0;;
21120;SDS011;12519;43.318;21.898;2024-03-23T15:02:32;7.0;;;7.0;;
21120;SDS011;12519;43.318;21.898;2024-03-23T15:07:09;7.0;;;7.0;;
21120;SDS011;12519;43.318;21.898;2024-03-23T15:11:45;6.0;;;6.0;;
21120;SDS011;12519;43.318;21.898;2024-03-23T15:16:22;6.0;;;6.0;;
21120;SDS011;12519;43.318;21.898;2024-03-23T15:20:59;6.0;;;6.0;;
21120;SDS011;12519;43.318;21.898;2024-03-23T15:25:40;6.0;;;6.0;;
21120;SDS011;12519;43.318;21.898;2024-03-23T15:30:16;7.0;;;6.0;;
21120;SDS011;12519;43.318;21.898;2024-03-23T15:34:54;7.0;;;6.0;;
21120;SDS011;12519;43.318;21.898;2024-03-23T15:39:31;8.0;;;7.0;;
21120;SDS011;12519;43.318;21.898;2024-03-23T15:44:07;8.0;;;7.0;;
21120;SDS011;12519;43.318;21.898;2024-03-23T15:48:44;8.0;;;7.0;;
21120;SDS011;12519;43.318;21.898;2024-03-23T15:53:21;8.0;;;8.0;;
21120;SDS011;12519;43.318;21.898;2024-03-23T15:58:00;8.0;;;8.0;;
21120;SDS011;12519;43.318;21.898;2024-03-23T16:02:36;8.0;;;8.0;;
21120;SDS011;12519;43.318;21.898;2024-03-23T16:07:12;8.0;;;8.0;;
21120;SDS011;12519;43.318;21.898;2024-03-23T16:11:48;8.0;;;8.0;;
21120;SDS011;12519;43.318;21.898;2024-03-23T16:16:25;8.0;;;8.0;;
21120;SDS011;12519;43.318;21.898;2024-03-23T16:21:01;8.0;;;7.0;;
21120;SDS011;12519;43.318;21.898;2024-03-23T16:25:45;8.0;;;7.0;;
21120;SDS011;12519;43.318;21.898;2024-03-23T16:30:25;12.0;;;10.0;;
21120;SDS011;12519;43.318;21.898;2024-03-23T16:35:01;12.0;;;10.0;;
21120;SDS011;12519;43.318;21.898;2024-03-23T16:39:39;15.0;;;12.0;;
21120;SDS011;12519;43.318;21.898;2024-03-23T16:44:15;15.0;;;12.0;;
21120;SDS011;12519;43.318;21.898;2024-03-23T16:48:52;15.0;;;12.0;;
21120;SDS011;12519;43.318;21.898;2024-03-23T16:53:28;16.0;;;13.0;;
21120;SDS011;12519;43.318;21.898;2024-03-23T16:58:08;16.0;;;13.0;;
21120;SDS011;12519;43.318;21.898;2024-03-23T17:02:45;18.0;;;14.0;;
21120;SDS011;12519;43.318;21.898;2024-03-23T17:07:22;18.0;;;14.0;;
21120;SDS011;12519;43.318;21.898;2024-03-23T17:11:59;16.0;;;13.0;;
21120;SDS011;12519;43.318;21.898;2024-03-23T17:16:36;16.0;;;13.0;;
21120;SDS011;12519;43.318;21.898;2024-03-23T17:21:13;13.0;;;12.0;;
21120;SDS011;12519;43.318;21.898;2024-03-23T17:25:49;13.0;;;12.0;;
21120;SDS011;12519;43.318;21.898;2024-03-23T17:30:26;12.0;;;11.0;;
21120;SDS011;12519;43.318;21.898;2024-03-23T17:35:03;12.0;;;11.0;;
21120;SDS011;12519;43.318;21.898;2024-03-23T17:39:41;11.0;;;10.0;;
21120;SDS011;12519;43.318;21.898;2024-03-23T17:44:18;11.0;;;10.0;;
21120;SDS011;12519;43.318;21.898;2024-03-23T17:48:54;11.0;;;10.0;;
21120;SDS011;12519;43.318;21.898;2024-03-23T17:53:36;13.0;;;11.0;;
21120;SDS011;12519;43.318;21.898;2024-03-23T17:58:15;13.0;;;11.0;;
21120;SDS011;12519;43.318;21.898;2024-03-23T18:02:52;15.0;;;12.0;;
21120;SDS011;12519;43.318;21.898;2024-03-23T18:07:28;15.0;;;12.0;;
21120;SDS011;12519;43.318;21.898;2024-03-23T18:12:05;14.0;;;12.0;;
21120;SDS011;12519;43.318;21.898;2024-03-23T18:16:43;14.0;;;12.0;;
21120;SDS011;12519;43.318;21.898;2024-03-23T18:21:19;14.0;;;13.0;;
21120;SDS011;12519;43.318;21.898;2024-03-23T18:25:56;14.0;;;13.0;;
21120;SDS011;12519;43.318;21.898;2024-03-23T18:30:33;13.0;;;12.0;;
21120;SDS011;12519;43.318;21.898;2024-03-23T18:35:10;13.0;;;12.0;;
21120;SDS011;12519;43.318;21.898;2024-03-23T18:39:47;12.0;;;10.0;;
21120;SDS011;12519;43.318;21.898;2024-03-23T18:44:23;12.0;;;10.0;;
21120;SDS011;12519;43.318;21.898;2024-03-23T18:48:59;12.0;;;10.0;;
21120;SDS011;12519;43.318;21.898;2024-03-23T18:53:36;12.0;;;10.0;;
21120;SDS011;12519;43.318;21.898;2024-03-23T18:58:12;12.0;;;10.0;;
21120;SDS011;12519;43.318;21.898;2024-03-23T19:02:48;12.0;;;10.0;;
21120;SDS011;12519;43.318;21.898;2024-03-23T19:07:24;12.0;;;10.0;;
21120;SDS011;12519;43.318;21.898;2024-03-23T19:12:01;12.0;;;10.0;;
21120;SDS011;12519;43.318;21.898;2024-03-23T19:16:38;12.0;;;10.0;;
21120;SDS011;12519;43.318;21.898;2024-03-23T19:21:15;12.0;;;11.0;;
21120;SDS011;12519;43.318;21.898;2024-03-23T19:25:51;12.0;;;11.0;;
21120;SDS011;12519;43.318;21.898;2024-03-23T19:30:30;10.0;;;10.0;;
21120;SDS011;12519;43.318;21.898;2024-03-23T19:35:09;10.0;;;10.0;;
21120;SDS011;12519;43.318;21.898;2024-03-23T19:39:46;9.0;;;9.0;;
21120;SDS011;12519;43.318;21.898;2024-03-23T19:44:23;9.0;;;9.0;;
21120;SDS011;12519;43.318;21.898;2024-03-23T19:49:00;9.0;;;9.0;;
21120;SDS011;12519;43.318;21.898;2024-03-23T19:53:37;11.0;;;10.0;;
21120;SDS011;12519;43.318;21.898;2024-03-23T19:58:14;11.0;;;10.0;;
21120;SDS011;12519;43.318;21.898;2024-03-23T20:02:50;13.0;;;11.0;;
21120;SDS011;12519;43.318;21.898;2024-03-23T20:07:27;13.0;;;11.0;;
21120;SDS011;12519;43.318;21.898;2024-03-23T20:12:04;13.0;;;10.0;;
21120;SDS011;12519;43.318;21.898;2024-03-23T20:16:44;13.0;;;10.0;;
21120;SDS011;12519;43.318;21.898;2024-03-23T20:21:21;13.0;;;10.0;;
21120;SDS011;12519;43.318;21.898;2024-03-23T20:25:58;13.0;;;10.0;;
21120;SDS011;12519;43.318;21.898;2024-03-23T20:30:35;13.0;;;10.0;;
21120;SDS011;12519;43.318;21.898;2024-03-23T20:35:12;13.0;;;10.0;;
21120;SDS011;12519;43.318;21.898;2024-03-23T20:39:49;13.0;;;11.0;;
21120;SDS011;12519;43.318;21.898;2024-03-23T20:44:27;13.0;;;11.0;;
21120;SDS011;12519;43.318;21.898;2024-03-23T20:49:03;13.0;;;11.0;;
21120;SDS011;12519;43.318;21.898;2024-03-23T20:53:40;14.0;;;12.0;;
21120;SDS011;12519;43.318;21.898;2024-03-23T20:58:18;14.0;;;12.0;;
21120;SDS011;12519;43.318;21.898;2024-03-23T21:02:56;15.0;;;12.0;;
21120;SDS011;12519;43.318;21.898;2024-03-23T21:07:32;15.0;;;12.0;;
21120;SDS011;12519;43.318;21.898;2024-03-23T21:12:09;14.0;;;12.0;;
21120;SDS011;12519;43.318;21.898;2024-03-23T21:16:45;14.0;;;12.0;;
21120;SDS011;12519;43.318;21.898;2024-03-23T21:21:22;14.0;;;12.0;;
21120;SDS011;12519;43.318;21.898;2024-03-23T21:25:59;14.0;;;12.0;;
21120;SDS011;12519;43.318;21.898;2024-03-23T21:30:40;12.0;;;11.0;;
21120;SDS011;12519;43.318;21.898;2024-03-23T21:35:16;12.0;;;11.0;;
21120;SDS011;12519;43.318;21.898;2024-03-23T21:39:53;10.0;;;10.0;;
21120;SDS011;12519;43.318;21.898;2024-03-23T21:44:30;10.0;;;10.0;;
21120;SDS011;12519;43.318;21.898;2024-03-23T21:49:07;10.0;;;10.0;;
21120;SDS011;12519;43.318;21.898;2024-03-23T21:53:44;10.0;;;10.0;;
21120;SDS011;12519;43.318;21.898;2024-03-23T21:58:21;10.0;;;10.0;;
21120;SDS011;12519;43.318;21.898;2024-03-23T22:03:03;10.0;;;10.0;;
21120;SDS011;12519;43.318;21.898;2024-03-23T22:07:40;10.0;;;10.0;;
21120;SDS011;12519;43.318;21.898;2024-03-23T22:12:17;10.0;;;10.0;;
21120;SDS011;12519;43.318;21.898;2024-03-23T22:16:54;10.0;;;10.0;;
21120;SDS011;12519;43.318;21.898;2024-03-23T22:21:31;9.0;;;9.0;;
21120;SDS011;12519;43.318;21.898;2024-03-23T22:26:07;9.0;;;9.0;;
21120;SDS011;12519;43.318;21.898;2024-03-23T22:30:52;10.0;;;8.0;;
21120;SDS011;12519;43.318;21.898;2024-03-23T22:35:31;10.0;;;8.0;;
21120;SDS011;12519;43.318;21.898;2024-03-23T22:40:08;10.0;;;8.0;;
21120;SDS011;12519;43.318;21.898;2024-03-23T22:44:48;10.0;;;8.0;;
21120;SDS011;12519;43.318;21.898;2024-03-23T22:49:24;10.0;;;8.0;;
21120;SDS011;12519;43.318;21.898;2024-03-23T22:54:02;10.0;;;8.0;;
21120;SDS011;12519;43.318;21.898;2024-03-23T22:58:39;10.0;;;8.0;;
21120;SDS011;12519;43.318;21.898;2024-03-23T23:03:15;9.0;;;8.0;;
21120;SDS011;12519;43.318;21.898;2024-03-23T23:07:56;9.0;;;8.0;;
21120;SDS011;12519;43.318;21.898;2024-03-23T23:12:33;10.0;;;8.0;;
21120;SDS011;12519;43.318;21.898;2024-03-23T23:17:10;10.0;;;8.0;;
21120;SDS011;12519;43.318;21.898;2024-03-23T23:21:47;10.0;;;8.0;;
21120;SDS011;12519;43.318;21.898;2024-03-23T23:26:24;10.0;;;8.0;;
21120;SDS011;12519;43.318;21.898;2024-03-23T23:31:01;10.0;;;8.0;;
21120;SDS011;12519;43.318;21.898;2024-03-23T23:35:38;10.0;;;8.0;;
21120;SDS011;12519;43.318;21.898;2024-03-23T23:40:15;10.0;;;9.0;;
21120;SDS011;12519;43.318;21.898;2024-03-23T23:44:52;10.0;;;9.0;;
21120;SDS011;12519;43.318;21.898;2024-03-23T23:49:28;10.0;;;9.0;;
21120;SDS011;12519;43.318;21.898;2024-03-23T23:54:05;11.0;;;9.0;;
21120;SDS011;12519;43.318;21.898;2024-03-23T23:58:41;11.0;;;9.0;;
